sensor_id;sensor_type;location;lat;lon;timestamp;pressure;altitude;pressure_sealevel;temperature
68911;BMP180;55953;51.650;-0.522;2023-08-06T00:01:43;100370.60;;;13.00
68911;BMP180;55953;51.650;-0.522;2023-08-06T00:04:11;100374.60;;;12.90
68911;BMP180;55953;51.650;-0.522;2023-08-06T00:06:39;100377.40;;;12.80
68911;BMP180;55953;51.650;-0.522;2023-08-06T00:09:07;100386.40;;;12.80
68911;BMP180;55953;51.650;-0.522;2023-08-06T00:11:35;100387.40;;;12.70
68911;BMP180;55953;51.650;-0.522;2023-08-06T00:14:02;100386.80;;;12.70
68911;BMP180;55953;51.650;-0.522;2023-08-06T00:16:30;100390.40;;;12.70
68911;BMP180;55953;51.650;-0.522;2023-08-06T00:18:58;100401.80;;;12.60
68911;BMP180;55953;51.650;-0.522;2023-08-06T00:21:26;100397.60;;;12.60
68911;BMP180;55953;51.650;-0.522;2023-08-06T00:23:54;100402.40;;;12.60
68911;BMP180;55953;51.650;-0.522;2023-08-06T00:26:21;100409.20;;;12.50
68911;BMP180;55953;51.650;-0.522;2023-08-06T00:28:49;100412.40;;;12.50
68911;BMP180;55953;51.650;-0.522;2023-08-06T00:31:17;100420.00;;;12.50
68911;BMP180;55953;51.650;-0.522;2023-08-06T00:33:45;100415.00;;;12.50
68911;BMP180;55953;51.650;-0.522;2023-08-06T00:36:12;100416.20;;;12.46
68911;BMP180;55953;51.650;-0.522;2023-08-06T00:38:40;100418.00;;;12.44
68911;BMP180;55953;51.650;-0.522;2023-08-06T00:41:09;100425.40;;;12.40
68911;BMP180;55953;51.650;-0.522;2023-08-06T00:43:37;100427.60;;;12.40
68911;BMP180;55953;51.650;-0.522;2023-08-06T00:46:05;100427.00;;;12.40
68911;BMP180;55953;51.650;-0.522;2023-08-06T00:48:33;100432.40;;;12.40
68911;BMP180;55953;51.650;-0.522;2023-08-06T00:51:01;100430.80;;;12.40
68911;BMP180;55953;51.650;-0.522;2023-08-06T00:53:29;100437.00;;;12.40
68911;BMP180;55953;51.650;-0.522;2023-08-06T00:55:58;100441.80;;;12.40
68911;BMP180;55953;51.650;-0.522;2023-08-06T00:58:26;100440.60;;;12.36
68911;BMP180;55953;51.650;-0.522;2023-08-06T01:00:53;100446.60;;;12.30
68911;BMP180;55953;51.650;-0.522;2023-08-06T01:03:21;100448.40;;;12.30
68911;BMP180;55953;51.650;-0.522;2023-08-06T01:05:50;100466.20;;;12.30
68911;BMP180;55953;51.650;-0.522;2023-08-06T01:08:40;100466.40;;;12.30
68911;BMP180;55953;51.650;-0.522;2023-08-06T01:11:38;100469.20;;;12.30
68911;BMP180;55953;51.650;-0.522;2023-08-06T01:14:44;100471.40;;;12.22
68911;BMP180;55953;51.650;-0.522;2023-08-06T01:17:14;100469.40;;;12.20
68911;BMP180;55953;51.650;-0.522;2023-08-06T01:19:42;100469.60;;;12.20
68911;BMP180;55953;51.650;-0.522;2023-08-06T01:22:09;100470.40;;;12.20
68911;BMP180;55953;51.650;-0.522;2023-08-06T01:24:37;100475.00;;;12.18
68911;BMP180;55953;51.650;-0.522;2023-08-06T01:27:16;100474.20;;;12.10
68911;BMP180;55953;51.650;-0.522;2023-08-06T01:29:52;100477.20;;;12.10
68911;BMP180;55953;51.650;-0.522;2023-08-06T01:32:24;100476.80;;;12.10
68911;BMP180;55953;51.650;-0.522;2023-08-06T01:34:55;100483.00;;;12.10
68911;BMP180;55953;51.650;-0.522;2023-08-06T01:37:23;100486.80;;;12.10
68911;BMP180;55953;51.650;-0.522;2023-08-06T01:39:51;100482.60;;;12.10
68911;BMP180;55953;51.650;-0.522;2023-08-06T01:42:18;100488.40;;;12.10
68911;BMP180;55953;51.650;-0.522;2023-08-06T01:44:47;100499.20;;;12.10
68911;BMP180;55953;51.650;-0.522;2023-08-06T01:47:15;100503.80;;;12.08
68911;BMP180;55953;51.650;-0.522;2023-08-06T01:49:42;100507.40;;;12.06
68911;BMP180;55953;51.650;-0.522;2023-08-06T01:52:10;100509.60;;;12.06
68911;BMP180;55953;51.650;-0.522;2023-08-06T01:54:38;100508.80;;;12.02
68911;BMP180;55953;51.650;-0.522;2023-08-06T01:57:06;100508.80;;;12.00
68911;BMP180;55953;51.650;-0.522;2023-08-06T01:59:34;100502.40;;;12.00
68911;BMP180;55953;51.650;-0.522;2023-08-06T02:02:04;100503.80;;;12.00
68911;BMP180;55953;51.650;-0.522;2023-08-06T02:04:31;100506.00;;;12.00
68911;BMP180;55953;51.650;-0.522;2023-08-06T02:06:59;100507.20;;;12.00
68911;BMP180;55953;51.650;-0.522;2023-08-06T02:09:27;100510.60;;;12.00
68911;BMP180;55953;51.650;-0.522;2023-08-06T02:11:55;100507.80;;;12.00
68911;BMP180;55953;51.650;-0.522;2023-08-06T02:14:22;100512.20;;;12.00
68911;BMP180;55953;51.650;-0.522;2023-08-06T02:16:50;100511.20;;;11.92
68911;BMP180;55953;51.650;-0.522;2023-08-06T02:19:18;100519.80;;;11.90
68911;BMP180;55953;51.650;-0.522;2023-08-06T02:21:46;100518.80;;;11.90
68911;BMP180;55953;51.650;-0.522;2023-08-06T02:24:15;100518.20;;;11.90
68911;BMP180;55953;51.650;-0.522;2023-08-06T02:26:43;100514.80;;;11.90
68911;BMP180;55953;51.650;-0.522;2023-08-06T02:29:12;100525.60;;;11.90
68911;BMP180;55953;51.650;-0.522;2023-08-06T02:31:42;100522.60;;;11.90
68911;BMP180;55953;51.650;-0.522;2023-08-06T02:34:10;100522.80;;;11.90
68911;BMP180;55953;51.650;-0.522;2023-08-06T02:36:38;100521.20;;;11.84
68911;BMP180;55953;51.650;-0.522;2023-08-06T02:39:06;100530.80;;;11.88
68911;BMP180;55953;51.650;-0.522;2023-08-06T02:41:35;100524.00;;;11.90
68911;BMP180;55953;51.650;-0.522;2023-08-06T02:44:03;100534.20;;;11.90
68911;BMP180;55953;51.650;-0.522;2023-08-06T02:46:31;100528.60;;;11.90
68911;BMP180;55953;51.650;-0.522;2023-08-06T02:48:59;100530.00;;;11.88
68911;BMP180;55953;51.650;-0.522;2023-08-06T02:51:27;100528.00;;;11.90
68911;BMP180;55953;51.650;-0.522;2023-08-06T02:53:54;100532.60;;;11.84
68911;BMP180;55953;51.650;-0.522;2023-08-06T02:56:22;100535.80;;;11.84
68911;BMP180;55953;51.650;-0.522;2023-08-06T02:58:57;100534.60;;;11.90
68911;BMP180;55953;51.650;-0.522;2023-08-06T03:01:34;100538.80;;;11.80
68911;BMP180;55953;51.650;-0.522;2023-08-06T03:04:07;100534.80;;;11.80
68911;BMP180;55953;51.650;-0.522;2023-08-06T03:06:38;100536.40;;;11.80
68911;BMP180;55953;51.650;-0.522;2023-08-06T03:09:06;100538.00;;;11.80
68911;BMP180;55953;51.650;-0.522;2023-08-06T03:11:34;100542.80;;;11.72
68911;BMP180;55953;51.650;-0.522;2023-08-06T03:14:09;100540.20;;;11.70
68911;BMP180;55953;51.650;-0.522;2023-08-06T03:16:40;100540.60;;;11.70
68911;BMP180;55953;51.650;-0.522;2023-08-06T03:19:08;100546.00;;;11.70
68911;BMP180;55953;51.650;-0.522;2023-08-06T03:21:35;100542.40;;;11.70
68911;BMP180;55953;51.650;-0.522;2023-08-06T03:24:04;100544.00;;;11.68
68911;BMP180;55953;51.650;-0.522;2023-08-06T03:26:32;100547.20;;;11.64
68911;BMP180;55953;51.650;-0.522;2023-08-06T03:29:01;100544.40;;;11.64
68911;BMP180;55953;51.650;-0.522;2023-08-06T03:31:30;100551.20;;;11.60
68911;BMP180;55953;51.650;-0.522;2023-08-06T03:33:58;100549.20;;;11.60
68911;BMP180;55953;51.650;-0.522;2023-08-06T03:36:26;100550.00;;;11.60
68911;BMP180;55953;51.650;-0.522;2023-08-06T03:38:55;100552.20;;;11.60
68911;BMP180;55953;51.650;-0.522;2023-08-06T03:41:23;100551.60;;;11.60
68911;BMP180;55953;51.650;-0.522;2023-08-06T03:43:51;100551.80;;;11.60
68911;BMP180;55953;51.650;-0.522;2023-08-06T03:46:23;100550.60;;;11.60
68911;BMP180;55953;51.650;-0.522;2023-08-06T03:48:51;100555.80;;;11.60
68911;BMP180;55953;51.650;-0.522;2023-08-06T03:51:19;100560.40;;;11.60
68911;BMP180;55953;51.650;-0.522;2023-08-06T03:53:47;100562.20;;;11.60
68911;BMP180;55953;51.650;-0.522;2023-08-06T03:56:15;100554.20;;;11.56
68911;BMP180;55953;51.650;-0.522;2023-08-06T03:58:43;100559.40;;;11.50
68911;BMP180;55953;51.650;-0.522;2023-08-06T04:01:11;100563.00;;;11.50
68911;BMP180;55953;51.650;-0.522;2023-08-06T04:03:43;100568.80;;;11.50
68911;BMP180;55953;51.650;-0.522;2023-08-06T04:06:11;100570.00;;;11.50
68911;BMP180;55953;51.650;-0.522;2023-08-06T04:08:39;100573.60;;;11.50
68911;BMP180;55953;51.650;-0.522;2023-08-06T04:11:07;100576.00;;;11.50
68911;BMP180;55953;51.650;-0.522;2023-08-06T04:13:35;100581.00;;;11.50
68911;BMP180;55953;51.650;-0.522;2023-08-06T04:16:04;100589.00;;;11.50
68911;BMP180;55953;51.650;-0.522;2023-08-06T04:18:32;100586.00;;;11.48
68911;BMP180;55953;51.650;-0.522;2023-08-06T04:21:02;100587.20;;;11.44
68911;BMP180;55953;51.650;-0.522;2023-08-06T04:23:29;100593.40;;;11.42
68911;BMP180;55953;51.650;-0.522;2023-08-06T04:26:00;100594.60;;;11.40
68911;BMP180;55953;51.650;-0.522;2023-08-06T04:28:31;100596.20;;;11.40
68911;BMP180;55953;51.650;-0.522;2023-08-06T04:30:59;100601.80;;;11.40
68911;BMP180;55953;51.650;-0.522;2023-08-06T04:33:27;100600.40;;;11.40
68911;BMP180;55953;51.650;-0.522;2023-08-06T04:35:57;100604.60;;;11.40
68911;BMP180;55953;51.650;-0.522;2023-08-06T04:38:26;100603.20;;;11.40
68911;BMP180;55953;51.650;-0.522;2023-08-06T04:40:54;100602.00;;;11.40
68911;BMP180;55953;51.650;-0.522;2023-08-06T04:43:23;100608.60;;;11.34
68911;BMP180;55953;51.650;-0.522;2023-08-06T04:45:53;100613.40;;;11.32
68911;BMP180;55953;51.650;-0.522;2023-08-06T04:48:22;100616.20;;;11.30
68911;BMP180;55953;51.650;-0.522;2023-08-06T04:50:50;100621.00;;;11.30
68911;BMP180;55953;51.650;-0.522;2023-08-06T04:53:18;100628.40;;;11.30
68911;BMP180;55953;51.650;-0.522;2023-08-06T04:55:46;100624.20;;;11.30
68911;BMP180;55953;51.650;-0.522;2023-08-06T04:58:14;100630.80;;;11.30
68911;BMP180;55953;51.650;-0.522;2023-08-06T05:00:42;100628.60;;;11.34
68911;BMP180;55953;51.650;-0.522;2023-08-06T05:03:10;100634.40;;;11.40
68911;BMP180;55953;51.650;-0.522;2023-08-06T05:05:40;100635.80;;;11.40
68911;BMP180;55953;51.650;-0.522;2023-08-06T05:08:14;100636.00;;;11.40
68911;BMP180;55953;51.650;-0.522;2023-08-06T05:10:46;100634.60;;;11.40
68911;BMP180;55953;51.650;-0.522;2023-08-06T05:13:13;100639.00;;;11.48
68911;BMP180;55953;51.650;-0.522;2023-08-06T05:15:42;100645.20;;;11.50
68911;BMP180;55953;51.650;-0.522;2023-08-06T05:18:10;100647.20;;;11.50
68911;BMP180;55953;51.650;-0.522;2023-08-06T05:20:41;100653.20;;;11.60
68911;BMP180;55953;51.650;-0.522;2023-08-06T05:23:09;100648.60;;;11.60
68911;BMP180;55953;51.650;-0.522;2023-08-06T05:25:38;100648.40;;;11.60
68911;BMP180;55953;51.650;-0.522;2023-08-06T05:28:06;100649.40;;;11.60
68911;BMP180;55953;51.650;-0.522;2023-08-06T05:30:34;100656.00;;;11.70
68911;BMP180;55953;51.650;-0.522;2023-08-06T05:33:04;100665.20;;;11.70
68911;BMP180;55953;51.650;-0.522;2023-08-06T05:35:32;100665.80;;;11.70
68911;BMP180;55953;51.650;-0.522;2023-08-06T05:38:00;100670.20;;;11.80
68911;BMP180;55953;51.650;-0.522;2023-08-06T05:40:28;100668.60;;;11.90
68911;BMP180;55953;51.650;-0.522;2023-08-06T05:42:56;100669.20;;;11.96
68911;BMP180;55953;51.650;-0.522;2023-08-06T05:45:23;100675.80;;;12.06
68911;BMP180;55953;51.650;-0.522;2023-08-06T05:47:51;100671.40;;;12.20
68911;BMP180;55953;51.650;-0.522;2023-08-06T05:50:22;100679.60;;;12.30
68911;BMP180;55953;51.650;-0.522;2023-08-06T05:52:50;100680.60;;;12.40
68911;BMP180;55953;51.650;-0.522;2023-08-06T05:55:20;100681.60;;;12.50
68911;BMP180;55953;51.650;-0.522;2023-08-06T05:57:48;100686.00;;;12.60
68911;BMP180;55953;51.650;-0.522;2023-08-06T06:00:15;100678.00;;;12.68
68911;BMP180;55953;51.650;-0.522;2023-08-06T06:02:45;100679.20;;;12.70
68911;BMP180;55953;51.650;-0.522;2023-08-06T06:05:13;100687.80;;;12.70
68911;BMP180;55953;51.650;-0.522;2023-08-06T06:07:41;100679.60;;;12.70
68911;BMP180;55953;51.650;-0.522;2023-08-06T06:10:09;100687.60;;;12.70
68911;BMP180;55953;51.650;-0.522;2023-08-06T06:12:40;100692.80;;;12.80
68911;BMP180;55953;51.650;-0.522;2023-08-06T06:15:09;100700.20;;;12.86
68911;BMP180;55953;51.650;-0.522;2023-08-06T06:17:39;100704.20;;;12.90
68911;BMP180;55953;51.650;-0.522;2023-08-06T06:20:07;100705.80;;;13.00
68911;BMP180;55953;51.650;-0.522;2023-08-06T06:22:35;100696.60;;;13.04
68911;BMP180;55953;51.650;-0.522;2023-08-06T06:25:04;100701.00;;;13.10
68911;BMP180;55953;51.650;-0.522;2023-08-06T06:27:32;100703.40;;;13.20
68911;BMP180;55953;51.650;-0.522;2023-08-06T06:29:59;100706.60;;;13.20
68911;BMP180;55953;51.650;-0.522;2023-08-06T06:32:27;100698.80;;;13.20
68911;BMP180;55953;51.650;-0.522;2023-08-06T06:34:55;100702.20;;;13.30
68911;BMP180;55953;51.650;-0.522;2023-08-06T06:37:23;100703.40;;;13.30
68911;BMP180;55953;51.650;-0.522;2023-08-06T06:39:51;100713.60;;;13.30
68911;BMP180;55953;51.650;-0.522;2023-08-06T06:42:18;100711.40;;;13.40
68911;BMP180;55953;51.650;-0.522;2023-08-06T06:44:47;100718.40;;;13.40
68911;BMP180;55953;51.650;-0.522;2023-08-06T06:47:14;100718.40;;;13.50
68911;BMP180;55953;51.650;-0.522;2023-08-06T06:49:42;100725.00;;;13.58
68911;BMP180;55953;51.650;-0.522;2023-08-06T06:52:10;100717.20;;;13.60
68911;BMP180;55953;51.650;-0.522;2023-08-06T06:54:38;100719.40;;;13.70
68911;BMP180;55953;51.650;-0.522;2023-08-06T06:57:06;100723.80;;;13.70
68911;BMP180;55953;51.650;-0.522;2023-08-06T06:59:34;100718.40;;;13.70
68911;BMP180;55953;51.650;-0.522;2023-08-06T07:02:02;100730.20;;;13.70
68911;BMP180;55953;51.650;-0.522;2023-08-06T07:04:30;100727.80;;;13.60
68911;BMP180;55953;51.650;-0.522;2023-08-06T07:06:57;100731.00;;;13.60
68911;BMP180;55953;51.650;-0.522;2023-08-06T07:09:26;100727.80;;;13.60
68911;BMP180;55953;51.650;-0.522;2023-08-06T07:11:53;100730.00;;;13.60
68911;BMP180;55953;51.650;-0.522;2023-08-06T07:14:25;100725.40;;;13.70
68911;BMP180;55953;51.650;-0.522;2023-08-06T07:16:53;100734.60;;;13.70
68911;BMP180;55953;51.650;-0.522;2023-08-06T07:19:21;100737.60;;;13.80
68911;BMP180;55953;51.650;-0.522;2023-08-06T07:21:49;100740.00;;;13.90
68911;BMP180;55953;51.650;-0.522;2023-08-06T07:24:16;100740.60;;;13.90
68911;BMP180;55953;51.650;-0.522;2023-08-06T07:26:44;100740.60;;;13.90
68911;BMP180;55953;51.650;-0.522;2023-08-06T07:29:12;100743.60;;;13.90
68911;BMP180;55953;51.650;-0.522;2023-08-06T07:31:40;100736.60;;;13.90
68911;BMP180;55953;51.650;-0.522;2023-08-06T07:34:07;100744.20;;;13.90
68911;BMP180;55953;51.650;-0.522;2023-08-06T07:36:35;100739.40;;;14.00
68911;BMP180;55953;51.650;-0.522;2023-08-06T07:39:03;100748.20;;;14.02
68911;BMP180;55953;51.650;-0.522;2023-08-06T07:41:35;100749.60;;;14.20
68911;BMP180;55953;51.650;-0.522;2023-08-06T07:44:02;100748.00;;;14.26
68911;BMP180;55953;51.650;-0.522;2023-08-06T07:46:30;100754.40;;;14.32
68911;BMP180;55953;51.650;-0.522;2023-08-06T07:48:59;100763.00;;;14.48
68911;BMP180;55953;51.650;-0.522;2023-08-06T07:51:27;100764.80;;;14.52
68911;BMP180;55953;51.650;-0.522;2023-08-06T07:53:54;100760.20;;;14.64
68911;BMP180;55953;51.650;-0.522;2023-08-06T07:56:22;100756.80;;;14.76
68911;BMP180;55953;51.650;-0.522;2023-08-06T07:58:50;100755.80;;;14.90
68911;BMP180;55953;51.650;-0.522;2023-08-06T08:01:18;100760.80;;;14.90
68911;BMP180;55953;51.650;-0.522;2023-08-06T08:03:45;100749.20;;;15.00
68911;BMP180;55953;51.650;-0.522;2023-08-06T08:06:13;100749.00;;;15.00
68911;BMP180;55953;51.650;-0.522;2023-08-06T08:08:41;100758.20;;;15.10
68911;BMP180;55953;51.650;-0.522;2023-08-06T08:11:09;100754.00;;;15.20
68911;BMP180;55953;51.650;-0.522;2023-08-06T08:13:37;100759.40;;;15.20
68911;BMP180;55953;51.650;-0.522;2023-08-06T08:16:05;100754.20;;;15.40
68911;BMP180;55953;51.650;-0.522;2023-08-06T08:18:33;100750.20;;;15.60
68911;BMP180;55953;51.650;-0.522;2023-08-06T08:21:01;100757.80;;;15.60
68911;BMP180;55953;51.650;-0.522;2023-08-06T08:23:28;100761.00;;;15.54
68911;BMP180;55953;51.650;-0.522;2023-08-06T08:25:56;100764.20;;;15.50
68911;BMP180;55953;51.650;-0.522;2023-08-06T08:28:24;100761.20;;;15.60
68911;BMP180;55953;51.650;-0.522;2023-08-06T08:30:52;100762.40;;;15.76
68911;BMP180;55953;51.650;-0.522;2023-08-06T08:33:22;100761.60;;;15.90
68911;BMP180;55953;51.650;-0.522;2023-08-06T08:35:50;100755.80;;;16.16
68911;BMP180;55953;51.650;-0.522;2023-08-06T08:38:17;100764.40;;;16.30
68911;BMP180;55953;51.650;-0.522;2023-08-06T08:40:51;100760.60;;;16.50
68911;BMP180;55953;51.650;-0.522;2023-08-06T08:43:23;100767.00;;;16.60
68911;BMP180;55953;51.650;-0.522;2023-08-06T08:45:53;100761.20;;;16.52
68911;BMP180;55953;51.650;-0.522;2023-08-06T08:48:28;100783.00;;;16.60
68911;BMP180;55953;51.650;-0.522;2023-08-06T08:50:56;100774.80;;;16.50
68911;BMP180;55953;51.650;-0.522;2023-08-06T08:53:24;100773.80;;;16.60
68911;BMP180;55953;51.650;-0.522;2023-08-06T08:55:53;100773.60;;;16.80
68911;BMP180;55953;51.650;-0.522;2023-08-06T08:58:22;100772.20;;;17.00
68911;BMP180;55953;51.650;-0.522;2023-08-06T09:00:50;100768.80;;;17.20
68911;BMP180;55953;51.650;-0.522;2023-08-06T09:03:20;100767.80;;;17.30
68911;BMP180;55953;51.650;-0.522;2023-08-06T09:05:52;100778.00;;;17.40
68911;BMP180;55953;51.650;-0.522;2023-08-06T09:08:27;100785.60;;;17.40
68911;BMP180;55953;51.650;-0.522;2023-08-06T09:10:56;100778.60;;;17.44
68911;BMP180;55953;51.650;-0.522;2023-08-06T09:13:25;100785.20;;;17.50
68911;BMP180;55953;51.650;-0.522;2023-08-06T09:15:53;100787.40;;;17.34
68911;BMP180;55953;51.650;-0.522;2023-08-06T09:18:30;100787.60;;;17.26
68911;BMP180;55953;51.650;-0.522;2023-08-06T09:20:58;100785.40;;;17.20
68911;BMP180;55953;51.650;-0.522;2023-08-06T09:23:30;100790.60;;;17.00
68911;BMP180;55953;51.650;-0.522;2023-08-06T09:25:59;100795.60;;;16.80
68911;BMP180;55953;51.650;-0.522;2023-08-06T09:28:37;100797.80;;;16.70
68911;BMP180;55953;51.650;-0.522;2023-08-06T09:31:10;100798.80;;;16.60
68911;BMP180;55953;51.650;-0.522;2023-08-06T09:33:38;100799.00;;;16.68
68911;BMP180;55953;51.650;-0.522;2023-08-06T09:36:10;100801.80;;;16.70
68911;BMP180;55953;51.650;-0.522;2023-08-06T09:38:40;100802.80;;;16.80
68911;BMP180;55953;51.650;-0.522;2023-08-06T09:41:08;100805.20;;;16.96
68911;BMP180;55953;51.650;-0.522;2023-08-06T09:43:42;100800.80;;;17.20
68911;BMP180;55953;51.650;-0.522;2023-08-06T09:46:14;100802.80;;;17.30
68911;BMP180;55953;51.650;-0.522;2023-08-06T09:48:46;100807.00;;;17.20
68911;BMP180;55953;51.650;-0.522;2023-08-06T09:51:14;100808.60;;;17.24
68911;BMP180;55953;51.650;-0.522;2023-08-06T09:53:43;100813.20;;;17.50
68911;BMP180;55953;51.650;-0.522;2023-08-06T09:56:13;100814.80;;;17.52
68911;BMP180;55953;51.650;-0.522;2023-08-06T09:58:44;100811.40;;;17.70
68911;BMP180;55953;51.650;-0.522;2023-08-06T10:01:16;100817.80;;;17.96
68911;BMP180;55953;51.650;-0.522;2023-08-06T10:03:47;100813.60;;;18.00
68911;BMP180;55953;51.650;-0.522;2023-08-06T10:06:15;100814.00;;;18.00
68911;BMP180;55953;51.650;-0.522;2023-08-06T10:08:43;100819.40;;;17.84
68911;BMP180;55953;51.650;-0.522;2023-08-06T10:11:14;100828.20;;;17.62
68911;BMP180;55953;51.650;-0.522;2023-08-06T10:13:43;100829.80;;;17.48
68911;BMP180;55953;51.650;-0.522;2023-08-06T10:16:12;100831.40;;;17.20
68911;BMP180;55953;51.650;-0.522;2023-08-06T10:18:41;100832.60;;;17.10
68911;BMP180;55953;51.650;-0.522;2023-08-06T10:21:09;100835.60;;;16.90
68911;BMP180;55953;51.650;-0.522;2023-08-06T10:23:40;100835.00;;;16.90
68911;BMP180;55953;51.650;-0.522;2023-08-06T10:26:08;100846.00;;;16.90
68911;BMP180;55953;51.650;-0.522;2023-08-06T10:28:38;100850.00;;;16.90
68911;BMP180;55953;51.650;-0.522;2023-08-06T10:31:06;100845.40;;;16.86
68911;BMP180;55953;51.650;-0.522;2023-08-06T10:33:46;100846.80;;;16.90
68911;BMP180;55953;51.650;-0.522;2023-08-06T10:36:15;100848.40;;;16.88
68911;BMP180;55953;51.650;-0.522;2023-08-06T10:38:50;100846.00;;;16.80
68911;BMP180;55953;51.650;-0.522;2023-08-06T10:41:28;100851.40;;;16.80
68911;BMP180;55953;51.650;-0.522;2023-08-06T10:44:07;100853.80;;;16.70
68911;BMP180;55953;51.650;-0.522;2023-08-06T10:46:37;100851.00;;;16.60
68911;BMP180;55953;51.650;-0.522;2023-08-06T10:49:06;100855.20;;;16.60
68911;BMP180;55953;51.650;-0.522;2023-08-06T10:51:36;100852.20;;;16.50
68911;BMP180;55953;51.650;-0.522;2023-08-06T10:54:04;100856.40;;;16.50
68911;BMP180;55953;51.650;-0.522;2023-08-06T10:56:40;100854.20;;;16.50
68911;BMP180;55953;51.650;-0.522;2023-08-06T10:59:09;100859.80;;;16.44
68911;BMP180;55953;51.650;-0.522;2023-08-06T11:01:38;100866.40;;;16.38
68911;BMP180;55953;51.650;-0.522;2023-08-06T11:04:06;100869.80;;;16.26
68911;BMP180;55953;51.650;-0.522;2023-08-06T11:06:34;100868.80;;;16.10
68911;BMP180;55953;51.650;-0.522;2023-08-06T11:09:02;100868.80;;;15.90
68911;BMP180;55953;51.650;-0.522;2023-08-06T11:11:30;100873.20;;;15.70
68911;BMP180;55953;51.650;-0.522;2023-08-06T11:13:58;100874.00;;;15.50
68911;BMP180;55953;51.650;-0.522;2023-08-06T11:16:26;100865.80;;;15.40
68911;BMP180;55953;51.650;-0.522;2023-08-06T11:18:55;100866.80;;;15.38
68911;BMP180;55953;51.650;-0.522;2023-08-06T11:21:24;100862.20;;;15.54
68911;BMP180;55953;51.650;-0.522;2023-08-06T11:23:53;100864.80;;;15.72
68911;BMP180;55953;51.650;-0.522;2023-08-06T11:26:22;100859.20;;;16.00
68911;BMP180;55953;51.650;-0.522;2023-08-06T11:28:51;100860.40;;;16.20
68911;BMP180;55953;51.650;-0.522;2023-08-06T11:31:23;100855.60;;;16.30
68911;BMP180;55953;51.650;-0.522;2023-08-06T11:33:52;100853.60;;;16.40
68911;BMP180;55953;51.650;-0.522;2023-08-06T11:36:39;100849.80;;;16.50
68911;BMP180;55953;51.650;-0.522;2023-08-06T11:39:08;100853.00;;;16.60
68911;BMP180;55953;51.650;-0.522;2023-08-06T11:41:37;100853.60;;;16.80
68911;BMP180;55953;51.650;-0.522;2023-08-06T11:44:05;100849.20;;;16.90
68911;BMP180;55953;51.650;-0.522;2023-08-06T11:46:53;100852.40;;;17.00
68911;BMP180;55953;51.650;-0.522;2023-08-06T11:49:41;100851.60;;;17.20
68911;BMP180;55953;51.650;-0.522;2023-08-06T11:52:21;100846.60;;;17.20
68911;BMP180;55953;51.650;-0.522;2023-08-06T11:55:05;100852.80;;;17.20
68911;BMP180;55953;51.650;-0.522;2023-08-06T11:57:40;100847.60;;;17.30
68911;BMP180;55953;51.650;-0.522;2023-08-06T12:00:13;100846.20;;;17.50
68911;BMP180;55953;51.650;-0.522;2023-08-06T12:02:46;100843.00;;;17.68
68911;BMP180;55953;51.650;-0.522;2023-08-06T12:08:04;100848.40;;;17.90
68911;BMP180;55953;51.650;-0.522;2023-08-06T12:10:32;100851.80;;;18.00
68911;BMP180;55953;51.650;-0.522;2023-08-06T12:13:00;100850.80;;;17.90
68911;BMP180;55953;51.650;-0.522;2023-08-06T12:15:28;100851.80;;;17.78
68911;BMP180;55953;51.650;-0.522;2023-08-06T12:18:00;100863.40;;;17.50
68911;BMP180;55953;51.650;-0.522;2023-08-06T12:20:29;100868.20;;;17.40
68911;BMP180;55953;51.650;-0.522;2023-08-06T12:22:57;100864.80;;;17.20
68911;BMP180;55953;51.650;-0.522;2023-08-06T12:25:25;100868.40;;;17.20
68911;BMP180;55953;51.650;-0.522;2023-08-06T12:27:53;100861.60;;;17.24
68911;BMP180;55953;51.650;-0.522;2023-08-06T12:30:21;100863.20;;;17.42
68911;BMP180;55953;51.650;-0.522;2023-08-06T12:32:48;100861.20;;;17.56
68911;BMP180;55953;51.650;-0.522;2023-08-06T12:35:16;100859.80;;;17.60
68911;BMP180;55953;51.650;-0.522;2023-08-06T12:37:44;100863.80;;;17.52
68911;BMP180;55953;51.650;-0.522;2023-08-06T12:40:13;100862.00;;;17.50
68911;BMP180;55953;51.650;-0.522;2023-08-06T12:42:43;100869.40;;;17.60
68911;BMP180;55953;51.650;-0.522;2023-08-06T12:45:11;100873.60;;;17.78
68911;BMP180;55953;51.650;-0.522;2023-08-06T12:47:39;100880.00;;;17.70
68911;BMP180;55953;51.650;-0.522;2023-08-06T12:50:08;100873.20;;;17.70
68911;BMP180;55953;51.650;-0.522;2023-08-06T12:52:35;100870.40;;;17.80
68911;BMP180;55953;51.650;-0.522;2023-08-06T12:55:04;100872.60;;;17.84
68911;BMP180;55953;51.650;-0.522;2023-08-06T12:57:31;100867.40;;;17.90
68911;BMP180;55953;51.650;-0.522;2023-08-06T13:00:21;100861.60;;;18.20
68911;BMP180;55953;51.650;-0.522;2023-08-06T13:02:48;100856.80;;;18.50
68911;BMP180;55953;51.650;-0.522;2023-08-06T13:05:16;100855.60;;;18.70
68911;BMP180;55953;51.650;-0.522;2023-08-06T13:07:44;100857.40;;;18.46
68911;BMP180;55953;51.650;-0.522;2023-08-06T13:10:12;100847.80;;;18.30
68911;BMP180;55953;51.650;-0.522;2023-08-06T13:12:40;100852.60;;;18.30
68911;BMP180;55953;51.650;-0.522;2023-08-06T13:15:08;100848.80;;;18.42
68911;BMP180;55953;51.650;-0.522;2023-08-06T13:17:36;100851.40;;;18.60
68911;BMP180;55953;51.650;-0.522;2023-08-06T13:20:04;100846.00;;;18.80
68911;BMP180;55953;51.650;-0.522;2023-08-06T13:22:32;100850.40;;;18.90
68911;BMP180;55953;51.650;-0.522;2023-08-06T13:25:00;100855.20;;;19.00
68911;BMP180;55953;51.650;-0.522;2023-08-06T13:27:28;100853.00;;;19.30
68911;BMP180;55953;51.650;-0.522;2023-08-06T13:29:56;100860.80;;;19.48
68911;BMP180;55953;51.650;-0.522;2023-08-06T13:32:23;100856.00;;;19.50
68911;BMP180;55953;51.650;-0.522;2023-08-06T13:34:51;100849.20;;;19.50
68911;BMP180;55953;51.650;-0.522;2023-08-06T13:37:19;100857.60;;;19.40
68911;BMP180;55953;51.650;-0.522;2023-08-06T13:39:47;100863.20;;;19.40
68911;BMP180;55953;51.650;-0.522;2023-08-06T13:42:15;100866.40;;;19.36
68911;BMP180;55953;51.650;-0.522;2023-08-06T13:44:42;100869.40;;;19.30
68911;BMP180;55953;51.650;-0.522;2023-08-06T13:47:10;100866.00;;;19.50
68911;BMP180;55953;51.650;-0.522;2023-08-06T13:49:38;100866.80;;;19.50
68911;BMP180;55953;51.650;-0.522;2023-08-06T13:52:06;100864.40;;;19.70
68911;BMP180;55953;51.650;-0.522;2023-08-06T13:54:48;100862.40;;;20.06
68911;BMP180;55953;51.650;-0.522;2023-08-06T13:57:16;100858.00;;;20.30
68911;BMP180;55953;51.650;-0.522;2023-08-06T13:59:45;100859.80;;;20.20